Skip Navigation Links
NOAA logo - Click to go to the NOAA homepage
NOAA's National Weather Service
Alaska Aviation Weather Unit
  NWS logo - Click to go to the NWS homepage
Left Navbar Graphic     22 AKDT = 06 GMT

   
NOAA is celebrating 200 years of science, service, and stewardship. Visit the NOAA 200th celebration Web site to learn more.
USA.gov is the U.S. Government's official Web portal to all Federal, state and local government Web resources and services.
Facebook
NWS on Facebook

Important Change Regarding the AAWU Web Presence

 

Over the last several months, the AAWU has been working to navigate its webpages to a nationally supported server. Security, as well as other needs, have necessitated the change.  In the process, we have made an effort to enhance the functionality of our website, as well as some of our products. As of June 20, 2017, aawu.arh.noaa.gov will be discontinued. The new AAWU web address is weather.gov/aawu. It is now live and will run in-parallel with the old site until it is discontinued. Please send any feedback or questions regarding the new webpages to nws.ar.aawu.webauthors@noaa.gov.  Thank you for your patience during this time of transition.
AAWU Home :: Display TAF Add Bookmark
TAF PACV 280540Z 2806/2906 09011KT P6SM -SHRA SCT025 OVC050
     FM281200 09007KT 6SM -RA BR SCT008 OVC025=
PACV 280053Z 05005KT 10SM SCT020 BKN032 OVC055 07/05 A3023 RMK AO2
     RAB10E32 SLP238 P0000 T00720050 $=

METAR PACV 280153Z 00000KT 10SM FEW019 BKN032 OVC045 08/04 A3023 RMK AO2
     SLP236 T00780044 $=

METAR PACV 280253Z 13008G18KT 10SM SCT028 BKN045 OVC090 09/02 A3022 RMK
     AO2 SLP233 60000 T00890022 58006 $=

METAR PACV 280353Z 12008KT 10SM SCT029 BKN039 OVC095 08/03 A3020 RMK AO2
     SLP228 T00830028 $=

METAR PACV 280453Z 12003KT 10SM -RA FEW034 BKN041 OVC060 07/04 A3020
 RMK AO2 RAB16 SLP226 P0001 T00720044 $=

METAR PACV 280553Z 08004KT 10SM FEW029 OVC070 08/02 A3019 RMK AO2
 RAE23 SLP224 P0000 60001 T00780022 10089 20067 56009 $=


NOAA's National Weather Service
Alaska Aviation Weather Unit
6930 Sand Lake Road
Anchorage, AK 99502-1845
Disclaimer
Credits
Glossary
Privacy Policy
About Us
Career Opportunities
Contact AAWU Internet Services Site last modified: April, 17th 2012